メインページ
METAR-TAF:

METAR-TAF

空港 :

テグシガルパ, ホンジュラス

トンコンティン国際空港

緯度: 14-03N, 経度: 087-13W, 海抜: 994m

現時点の気象観測

当レポートは28分前の16:00(UTC)に作成
無風
気温 25°C
湿度 57%
気圧 1019 hPa
視程10km以上
高度3000ftの雲は散在している, 塔状積雲.

METAR: MHTG 221600Z 00000KT 9999 SCT030TCU 25/16 Q1019 A3009 NOSIG

時間: 10:28 (16:28 UTC)

予報

当レポートは6時間3分前の10:25(UTC)に作成
予報は22日の 12時(UTC)から 23日の 12時(UTC)まで有効
北/北西の風 4kt
視程10km以上
高度2600ftの雲はほとんどない
高度8000ftの雲は散在している
22日の 13時(UTC)から 22日の 15時(UTC)まで徐々に
の風 kt
高度2800ftの雲は散在している
確率 30% :
22日の 20時(UTC)から 23日の 02時(UTC)まで一時的に
視程: 5000m
高度2800ftの千切れ雲あり, 塔状積雲.
小雨
23日の 02時(UTC)から 23日の 04時(UTC)まで徐々に
の風 5kt
視程: 8000m
高度2500ftの千切れ雲あり, 塔状積雲.
近辺でにわか雨
23日の 06時(UTC)から 23日の 08時(UTC)まで徐々に
視程10km以上
高度2400ftの千切れ雲あり

TAF: MHTG 221025Z 2212/2312 33004KT 9999 FEW026 SCT080 TX30/2219Z TN14/2312Z BECMG 2213/2215 00000KT SCT028 PROB30 TEMPO 2220/2302 5000 -RA BKN028TCU BECMG 2302/2304 35005KT 8000 VCSH BKN025TCU BECMG 2306/2308 9999 NSW BKN024

4,000以上の空港の気象観測と天気予報(METAR報とTAF報)

利用可能な観測所は地図上に黄色い丸と赤い丸で示す。

丸の上にカーソルを重ねると観測所名を参照できる。

次にクリックすると気象観測と天気予報を参照できる。

マップの切り替え:黒色「×」印の緑ボタンをクリックして拡大、「-」印の緑ボタンをクリックして縮小、緑色の三角印をクリックして隣りの地図に切り替え


METAR-TAF: